Time;durP1;ratioP1;P1;durP2;ratioP2;P2;SDS_P1;SDS_P2;PMS_P1;PMS_P2;Temp;Humidity;BMP_temperature;BMP_pressure;BME280_temperature;BME280_humidity;BME280_pressure;Samples;Min_cycle;Max_cycle;Signal;HPM_P1;HPM_P2
2020/08/20 00:02:07;;;;;;;2.36;1.36;;;;;;;23.05;71.12;99633.95;;;;-46
2020/08/20 00:05:07;;;;;;;2.16;1.39;;;;;;;23.04;71.10;99629.91;;;;-46
2020/08/20 00:08:07;;;;;;;1.40;1.30;;;;;;;23.05;71.07;99627.53;;;;-47
2020/08/20 00:11:07;;;;;;;1.70;1.35;;;;;;;23.04;71.07;99628.85;;;;-47
2020/08/20 00:14:07;;;;;;;1.47;1.37;;;;;;;23.04;71.10;99634.27;;;;-47
2020/08/20 00:17:07;;;;;;;1.98;1.30;;;;;;;23.03;71.09;99632.45;;;;-47
2020/08/20 00:20:07;;;;;;;1.30;1.20;;;;;;;23.03;71.13;99635.14;;;;-47
2020/08/20 00:23:07;;;;;;;1.41;1.29;;;;;;;23.03;71.12;99642.59;;;;-47
2020/08/20 00:26:07;;;;;;;2.54;1.39;;;;;;;23.03;71.14;99635.72;;;;-47
2020/08/20 00:29:07;;;;;;;1.41;1.31;;;;;;;23.01;71.10;99626.03;;;;-45
2020/08/20 00:32:07;;;;;;;1.44;1.23;;;;;;;23.02;71.09;99627.35;;;;-47
2020/08/20 00:35:07;;;;;;;1.49;1.31;;;;;;;23.02;71.12;99628.75;;;;-51
2020/08/20 00:38:07;;;;;;;1.55;1.37;;;;;;;23.01;71.13;99631.58;;;;-50
2020/08/20 00:41:07;;;;;;;1.79;1.30;;;;;;;22.99;71.11;99630.56;;;;-50
2020/08/20 00:44:07;;;;;;;1.40;1.30;;;;;;;23.00;71.13;99629.16;;;;-50
2020/08/20 00:47:07;;;;;;;1.33;1.23;;;;;;;23.00;71.13;99622.79;;;;-51
2020/08/20 00:50:07;;;;;;;1.77;1.28;;;;;;;22.99;71.11;99626.70;;;;-51
2020/08/20 00:53:07;;;;;;;1.81;1.39;;;;;;;22.98;71.11;99626.32;;;;-51
2020/08/20 00:56:07;;;;;;;1.72;1.30;;;;;;;22.99;71.15;99631.86;;;;-51
2020/08/20 00:59:07;;;;;;;1.55;1.34;;;;;;;22.98;71.12;99631.08;;;;-50
2020/08/20 01:02:07;;;;;;;1.47;1.24;;;;;;;22.98;71.13;99635.56;;;;-51
2020/08/20 01:05:07;;;;;;;1.42;1.28;;;;;;;22.97;71.12;99635.84;;;;-51
2020/08/20 01:08:07;;;;;;;1.42;1.29;;;;;;;22.97;71.14;99634.86;;;;-50
2020/08/20 01:11:07;;;;;;;1.89;1.34;;;;;;;22.97;71.11;99631.65;;;;-61
2020/08/20 01:14:07;;;;;;;1.33;1.23;;;;;;;22.97;71.11;99633.28;;;;-61
2020/08/20 01:17:07;;;;;;;1.39;1.29;;;;;;;22.97;71.14;99634.42;;;;-61
2020/08/20 01:20:07;;;;;;;1.38;1.28;;;;;;;22.96;71.13;99630.87;;;;-62
2020/08/20 01:23:07;;;;;;;1.44;1.34;;;;;;;22.96;71.12;99635.52;;;;-61
2020/08/20 01:26:07;;;;;;;1.39;1.29;;;;;;;22.96;71.11;99639.29;;;;-61
2020/08/20 01:29:07;;;;;;;1.41;1.31;;;;;;;22.95;71.16;99639.31;;;;-61
2020/08/20 01:32:07;;;;;;;1.79;1.30;;;;;;;22.95;71.13;99635.31;;;;-61
2020/08/20 01:35:07;;;;;;;1.53;1.20;;;;;;;22.95;71.12;99639.89;;;;-61
2020/08/20 01:38:07;;;;;;;1.29;1.19;;;;;;;22.95;71.07;99637.11;;;;-62
2020/08/20 01:41:07;;;;;;;1.19;1.10;;;;;;;22.95;71.12;99634.00;;;;-61
2020/08/20 01:44:07;;;;;;;2.43;1.45;;;;;;;22.95;71.09;99636.69;;;;-61
2020/08/20 01:47:07;;;;;;;1.48;1.29;;;;;;;22.95;71.09;99637.27;;;;-61
2020/08/20 01:50:07;;;;;;;1.41;1.29;;;;;;;22.95;71.12;99633.25;;;;-61
2020/08/20 01:53:07;;;;;;;1.32;1.22;;;;;;;22.95;71.10;99630.08;;;;-61
2020/08/20 01:56:07;;;;;;;1.67;1.30;;;;;;;22.94;71.08;99624.38;;;;-61
2020/08/20 01:59:07;;;;;;;1.45;1.31;;;;;;;22.95;71.09;99628.44;;;;-61
2020/08/20 02:02:07;;;;;;;1.40;1.30;;;;;;;22.94;71.10;99628.95;;;;-61
2020/08/20 02:05:07;;;;;;;2.39;1.19;;;;;;;22.93;71.11;99634.94;;;;-61
2020/08/20 02:08:07;;;;;;;1.30;1.20;;;;;;;22.94;71.10;99633.69;;;;-61
2020/08/20 02:11:07;;;;;;;1.34;1.24;;;;;;;22.93;71.09;99628.24;;;;-61
2020/08/20 02:14:07;;;;;;;1.40;1.30;;;;;;;22.94;71.07;99630.93;;;;-61
2020/08/20 02:17:07;;;;;;;1.37;1.21;;;;;;;22.94;71.08;99628.97;;;;-61
2020/08/20 02:20:07;;;;;;;1.29;1.19;;;;;;;22.93;71.02;99625.06;;;;-61
2020/08/20 02:23:07;;;;;;;1.25;1.15;;;;;;;22.92;71.04;99623.84;;;;-61
2020/08/20 02:26:07;;;;;;;1.38;1.28;;;;;;;22.92;71.05;99625.48;;;;-61
2020/08/20 02:29:07;;;;;;;1.37;1.27;;;;;;;22.92;71.07;99626.72;;;;-61
2020/08/20 02:32:07;;;;;;;1.35;1.25;;;;;;;22.92;71.04;99629.08;;;;-61
2020/08/20 02:35:07;;;;;;;1.47;1.31;;;;;;;22.91;71.03;99633.35;;;;-61
2020/08/20 02:38:07;;;;;;;1.35;1.25;;;;;;;22.92;71.00;99637.41;;;;-61
2020/08/20 02:41:07;;;;;;;1.41;1.31;;;;;;;22.92;71.03;99642.25;;;;-62
2020/08/20 02:44:07;;;;;;;1.32;1.22;;;;;;;22.92;71.01;99644.36;;;;-61
2020/08/20 02:47:07;;;;;;;1.54;1.26;;;;;;;22.90;71.02;99641.36;;;;-62
2020/08/20 02:50:07;;;;;;;1.45;1.35;;;;;;;22.91;71.08;99645.59;;;;-61
2020/08/20 02:53:07;;;;;;;1.34;1.24;;;;;;;22.91;70.98;99651.48;;;;-61
2020/08/20 02:56:07;;;;;;;1.39;1.20;;;;;;;22.91;71.02;99653.93;;;;-61
2020/08/20 02:59:07;;;;;;;1.42;1.31;;;;;;;22.91;71.05;99656.22;;;;-46
2020/08/20 03:02:07;;;;;;;1.32;1.22;;;;;;;22.90;71.05;99662.77;;;;-46
2020/08/20 03:05:07;;;;;;;1.33;1.23;;;;;;;22.90;71.04;99659.69;;;;-46
2020/08/20 03:08:07;;;;;;;1.27;1.20;;;;;;;22.90;71.03;99660.83;;;;-47
2020/08/20 03:11:07;;;;;;;1.40;1.30;;;;;;;22.89;71.05;99668.11;;;;-47
2020/08/20 03:14:07;;;;;;;1.30;1.20;;;;;;;22.90;71.05;99668.33;;;;-47
2020/08/20 03:17:07;;;;;;;1.30;1.20;;;;;;;22.89;71.00;99670.09;;;;-47
2020/08/20 03:20:07;;;;;;;1.38;1.28;;;;;;;22.89;71.01;99670.31;;;;-47
2020/08/20 03:23:07;;;;;;;1.30;1.20;;;;;;;22.88;71.02;99672.53;;;;-46
2020/08/20 03:26:07;;;;;;;1.30;1.20;;;;;;;22.88;71.00;99672.94;;;;-61
2020/08/20 03:29:07;;;;;;;1.30;1.20;;;;;;;22.88;71.00;99672.31;;;;-61
2020/08/20 03:32:07;;;;;;;1.59;1.21;;;;;;;22.88;71.01;99674.17;;;;-61
2020/08/20 03:35:07;;;;;;;1.30;1.20;;;;;;;22.88;71.05;99681.30;;;;-61
2020/08/20 03:38:07;;;;;;;1.33;1.20;;;;;;;22.88;71.06;99686.69;;;;-62
2020/08/20 03:41:07;;;;;;;1.30;1.20;;;;;;;22.88;71.03;99692.90;;;;-61
2020/08/20 03:44:07;;;;;;;1.39;1.29;;;;;;;22.87;71.06;99691.19;;;;-60
2020/08/20 03:47:07;;;;;;;1.24;1.14;;;;;;;22.87;71.06;99699.87;;;;-62
2020/08/20 03:50:07;;;;;;;1.38;1.28;;;;;;;22.87;71.06;99706.63;;;;-61
2020/08/20 03:53:07;;;;;;;1.37;1.27;;;;;;;22.86;71.10;99709.42;;;;-61
2020/08/20 03:56:07;;;;;;;1.39;1.29;;;;;;;22.86;71.10;99712.03;;;;-61
2020/08/20 03:59:07;;;;;;;1.93;1.20;;;;;;;22.86;71.08;99713.83;;;;-61
2020/08/20 04:02:07;;;;;;;1.33;1.10;;;;;;;22.86;71.10;99714.72;;;;-61
2020/08/20 04:05:07;;;;;;;1.30;1.20;;;;;;;22.85;71.12;99718.05;;;;-61
2020/08/20 04:08:07;;;;;;;1.33;1.21;;;;;;;22.85;71.13;99724.66;;;;-51
2020/08/20 04:11:07;;;;;;;1.36;1.26;;;;;;;22.85;71.12;99726.70;;;;-52
2020/08/20 04:14:07;;;;;;;1.43;1.33;;;;;;;22.85;71.11;99727.19;;;;-52
2020/08/20 04:17:07;;;;;;;1.30;1.20;;;;;;;22.85;71.11;99734.13;;;;-52
2020/08/20 04:20:07;;;;;;;1.30;1.20;;;;;;;22.84;71.11;99732.83;;;;-61
2020/08/20 04:23:07;;;;;;;1.28;1.18;;;;;;;22.84;71.15;99740.41;;;;-61
2020/08/20 04:26:07;;;;;;;1.30;1.20;;;;;;;22.84;71.15;99741.16;;;;-61
2020/08/20 04:29:07;;;;;;;1.20;1.14;;;;;;;22.84;71.12;99739.45;;;;-61
2020/08/20 04:32:07;;;;;;;1.30;1.20;;;;;;;22.84;71.15;99741.65;;;;-61
2020/08/20 04:35:07;;;;;;;1.10;1.10;;;;;;;22.84;71.09;99740.03;;;;-61
2020/08/20 04:38:07;;;;;;;1.19;1.09;;;;;;;22.84;71.11;99738.23;;;;-50
2020/08/20 04:41:07;;;;;;;1.35;1.25;;;;;;;22.83;71.12;99748.70;;;;-50
2020/08/20 04:44:07;;;;;;;1.25;1.17;;;;;;;22.84;71.13;99756.45;;;;-50
2020/08/20 04:47:07;;;;;;;1.16;1.15;;;;;;;22.83;71.14;99756.46;;;;-50
2020/08/20 04:50:07;;;;;;;1.34;1.23;;;;;;;22.83;71.13;99759.17;;;;-52
2020/08/20 04:53:07;;;;;;;1.17;1.13;;;;;;;22.83;71.11;99760.22;;;;-51
2020/08/20 04:56:07;;;;;;;1.23;1.17;;;;;;;22.83;71.13;99765.61;;;;-52
2020/08/20 04:59:07;;;;;;;1.21;1.11;;;;;;;22.83;71.12;99772.56;;;;-61
2020/08/20 05:02:07;;;;;;;2.21;1.28;;;;;;;22.81;71.30;99775.38;;;;-62
2020/08/20 05:05:07;;;;;;;2.92;2.17;;;;;;;22.77;71.41;99763.04;;;;-62
2020/08/20 05:08:07;;;;;;;3.16;2.21;;;;;;;22.73;72.34;99760.90;;;;-47
2020/08/20 05:11:07;;;;;;;2.87;2.39;;;;;;;22.74;72.76;99756.70;;;;-47
2020/08/20 05:14:07;;;;;;;2.65;2.15;;;;;;;22.69;72.83;99763.08;;;;-51
2020/08/20 05:17:07;;;;;;;2.49;2.29;;;;;;;22.67;73.25;99772.84;;;;-61
2020/08/20 05:20:07;;;;;;;3.19;2.18;;;;;;;22.67;73.77;99764.35;;;;-51
2020/08/20 05:23:07;;;;;;;2.43;2.20;;;;;;;22.62;73.60;99759.30;;;;-51
2020/08/20 05:26:07;;;;;;;2.85;2.30;;;;;;;22.61;73.61;99758.33;;;;-51
2020/08/20 05:29:07;;;;;;;3.20;2.41;;;;;;;22.55;73.55;99764.64;;;;-50
2020/08/20 05:32:07;;;;;;;2.87;2.45;;;;;;;22.57;73.60;99763.95;;;;-51
2020/08/20 05:35:07;;;;;;;3.93;2.39;;;;;;;22.58;74.28;99764.27;;;;-55
2020/08/20 05:38:07;;;;;;;6.34;2.69;;;;;;;22.54;74.02;99767.94;;;;-55
2020/08/20 05:41:07;;;;;;;7.94;2.39;;;;;;;22.55;73.87;99779.91;;;;-55
2020/08/20 05:44:07;;;;;;;2.77;2.27;;;;;;;22.58;73.69;99797.11;;;;-48
2020/08/20 05:47:07;;;;;;;2.80;2.26;;;;;;;22.60;73.56;99800.59;;;;-48
2020/08/20 05:50:07;;;;;;;3.45;2.35;;;;;;;22.62;73.45;99805.35;;;;-55
2020/08/20 05:53:07;;;;;;;2.94;2.11;;;;;;;22.62;73.30;99810.59;;;;-55
2020/08/20 05:56:07;;;;;;;2.51;2.14;;;;;;;22.64;73.17;99812.27;;;;-55
2020/08/20 05:59:07;;;;;;;4.30;2.08;;;;;;;22.65;73.04;99816.59;;;;-55
2020/08/20 06:02:07;;;;;;;2.33;2.00;;;;;;;22.65;72.99;99812.17;;;;-60
2020/08/20 06:05:07;;;;;;;2.11;1.91;;;;;;;22.66;72.90;99815.75;;;;-59
2020/08/20 06:08:07;;;;;;;2.41;2.21;;;;;;;22.67;72.83;99824.32;;;;-60
2020/08/20 06:11:07;;;;;;;2.64;2.00;;;;;;;22.67;72.77;99822.02;;;;-60
2020/08/20 06:14:07;;;;;;;3.08;2.28;;;;;;;22.68;72.70;99822.48;;;;-60
2020/08/20 06:17:07;;;;;;;3.38;2.21;;;;;;;22.68;72.62;99825.50;;;;-60
2020/08/20 06:20:07;;;;;;;2.57;2.19;;;;;;;22.69;72.55;99832.61;;;;-60
2020/08/20 06:23:07;;;;;;;2.73;1.91;;;;;;;22.69;72.50;99837.84;;;;-60
2020/08/20 06:26:07;;;;;;;2.31;2.11;;;;;;;22.69;72.45;99839.45;;;;-60
2020/08/20 06:29:07;;;;;;;2.43;2.10;;;;;;;22.68;72.46;99837.93;;;;-60
2020/08/20 06:32:07;;;;;;;3.05;2.23;;;;;;;22.69;72.40;99836.75;;;;-60
2020/08/20 06:35:07;;;;;;;3.39;2.09;;;;;;;22.69;72.32;99834.47;;;;-59
2020/08/20 06:38:07;;;;;;;2.34;2.01;;;;;;;22.69;72.29;99835.54;;;;-60
2020/08/20 06:41:07;;;;;;;2.44;2.20;;;;;;;22.70;72.25;99838.30;;;;-60
2020/08/20 06:44:07;;;;;;;2.35;2.00;;;;;;;22.70;72.21;99838.53;;;;-60
2020/08/20 06:47:07;;;;;;;2.26;2.06;;;;;;;22.70;72.21;99841.41;;;;-60
2020/08/20 06:50:07;;;;;;;2.19;1.99;;;;;;;22.70;72.17;99841.23;;;;-59
2020/08/20 06:53:07;;;;;;;1.97;1.87;;;;;;;22.70;72.17;99840.50;;;;-48
2020/08/20 06:56:07;;;;;;;2.49;2.06;;;;;;;22.70;72.14;99839.84;;;;-48
2020/08/20 06:59:07;;;;;;;2.13;1.93;;;;;;;22.69;72.07;99841.49;;;;-48
2020/08/20 07:02:07;;;;;;;2.05;1.85;;;;;;;22.70;72.13;99840.17;;;;-48
2020/08/20 07:05:07;;;;;;;2.53;2.13;;;;;;;22.70;72.11;99832.98;;;;-48
2020/08/20 07:08:07;;;;;;;2.46;1.99;;;;;;;22.69;72.13;99829.56;;;;-48
2020/08/20 07:11:07;;;;;;;3.56;1.96;;;;;;;22.70;72.11;99835.70;;;;-48
2020/08/20 07:14:07;;;;;;;1.93;1.83;;;;;;;22.69;72.06;99830.70;;;;-60
2020/08/20 07:17:07;;;;;;;1.99;1.83;;;;;;;22.70;72.06;99832.59;;;;-60
2020/08/20 07:20:07;;;;;;;1.84;1.74;;;;;;;22.70;72.06;99831.34;;;;-61
2020/08/20 07:23:07;;;;;;;2.00;1.90;;;;;;;22.70;72.07;99832.66;;;;-60
2020/08/20 07:26:07;;;;;;;1.95;1.83;;;;;;;22.70;71.98;99839.45;;;;-50
2020/08/20 07:29:07;;;;;;;1.99;1.89;;;;;;;22.71;72.02;99841.56;;;;-56
2020/08/20 07:32:07;;;;;;;1.93;1.83;;;;;;;22.70;71.95;99838.64;;;;-55
2020/08/20 07:35:07;;;;;;;1.98;1.85;;;;;;;22.71;71.99;99844.98;;;;-56
2020/08/20 07:38:07;;;;;;;1.93;1.83;;;;;;;22.71;71.93;99845.23;;;;-48
2020/08/20 07:41:07;;;;;;;1.95;1.85;;;;;;;22.70;71.92;99844.92;;;;-48
2020/08/20 07:44:07;;;;;;;1.99;1.89;;;;;;;22.71;71.90;99855.94;;;;-48
2020/08/20 07:47:07;;;;;;;1.79;1.69;;;;;;;22.71;71.90;99856.83;;;;-48
2020/08/20 07:50:07;;;;;;;2.10;1.90;;;;;;;22.71;71.89;99860.19;;;;-50
2020/08/20 07:53:07;;;;;;;6.73;2.12;;;;;;;22.71;72.03;99862.95;;;;-49
2020/08/20 07:56:07;;;;;;;3.75;2.11;;;;;;;22.72;72.18;99867.19;;;;-51
2020/08/20 07:59:07;;;;;;;2.43;2.01;;;;;;;22.75;72.16;99866.25;;;;-53
2020/08/20 08:02:07;;;;;;;2.78;1.91;;;;;;;22.77;72.20;99870.63;;;;-50
2020/08/20 08:05:07;;;;;;;2.45;1.94;;;;;;;22.78;72.21;99864.95;;;;-49
2020/08/20 08:08:07;;;;;;;4.41;2.07;;;;;;;22.80;72.24;99860.00;;;;-49
2020/08/20 08:11:07;;;;;;;4.41;2.17;;;;;;;22.82;72.39;99862.69;;;;-47
2020/08/20 08:14:07;;;;;;;4.84;1.99;;;;;;;22.84;72.40;99868.45;;;;-48
2020/08/20 08:17:07;;;;;;;4.35;1.86;;;;;;;22.86;72.53;99879.70;;;;-46
2020/08/20 08:20:07;;;;;;;3.75;2.03;;;;;;;22.87;72.39;99878.70;;;;-50
2020/08/20 08:23:07;;;;;;;3.37;1.91;;;;;;;22.89;72.65;99885.44;;;;-50
2020/08/20 08:26:07;;;;;;;6.47;2.11;;;;;;;22.91;72.55;99887.30;;;;-51
2020/08/20 08:29:07;;;;;;;2.81;1.69;;;;;;;22.92;72.46;99885.08;;;;-51
2020/08/20 08:32:07;;;;;;;3.95;1.99;;;;;;;22.94;72.81;99891.97;;;;-57
2020/08/20 08:35:07;;;;;;;4.15;2.03;;;;;;;22.95;72.61;99899.16;;;;-59
2020/08/20 08:38:07;;;;;;;2.69;1.79;;;;;;;22.96;72.53;99896.27;;;;-51
2020/08/20 08:41:07;;;;;;;3.46;1.89;;;;;;;22.98;72.67;99893.15;;;;-59
2020/08/20 08:44:07;;;;;;;2.57;1.87;;;;;;;23.00;72.79;99890.01;;;;-56
2020/08/20 08:47:07;;;;;;;2.38;1.85;;;;;;;23.01;72.67;99889.66;;;;-54
2020/08/20 08:50:07;;;;;;;4.11;1.92;;;;;;;23.02;72.53;99878.96;;;;-51
2020/08/20 08:53:07;;;;;;;2.09;1.83;;;;;;;23.04;72.57;99876.33;;;;-52
2020/08/20 08:56:07;;;;;;;4.16;2.03;;;;;;;23.04;72.57;99872.55;;;;-55
2020/08/20 08:59:07;;;;;;;2.73;1.85;;;;;;;23.03;72.31;99860.05;;;;-55
2020/08/20 09:02:07;;;;;;;6.66;2.01;;;;;;;23.05;72.49;99858.80;;;;-61
2020/08/20 09:05:07;;;;;;;10.93;2.26;;;;;;;23.10;73.03;99857.25;;;;-57
2020/08/20 09:08:07;;;;;;;20.67;2.57;;;;;;;23.10;73.06;99858.31;;;;-58
2020/08/20 09:11:07;;;;;;;6.57;2.09;;;;;;;23.12;72.89;99857.93;;;;-55
2020/08/20 09:14:07;;;;;;;8.71;2.59;;;;;;;23.13;72.70;99852.53;;;;-60
2020/08/20 09:17:07;;;;;;;11.81;2.39;;;;;;;23.14;72.66;99850.71;;;;-51
2020/08/20 09:20:07;;;;;;;6.92;2.33;;;;;;;23.14;72.70;99850.88;;;;-50
2020/08/20 09:23:07;;;;;;;6.73;2.23;;;;;;;23.14;72.46;99856.85;;;;-52
2020/08/20 09:26:07;;;;;;;10.03;2.35;;;;;;;23.13;72.75;99856.19;;;;-50
2020/08/20 09:29:07;;;;;;;10.11;2.59;;;;;;;23.13;72.54;99862.23;;;;-51
2020/08/20 09:32:07;;;;;;;8.83;2.42;;;;;;;23.15;72.49;99864.27;;;;-52
2020/08/20 09:35:07;;;;;;;11.57;2.51;;;;;;;23.14;72.37;99863.05;;;;-53
2020/08/20 09:38:07;;;;;;;7.87;2.35;;;;;;;23.15;72.39;99864.83;;;;-51
2020/08/20 09:41:07;;;;;;;10.81;2.24;;;;;;;23.15;72.32;99867.28;;;;-52
2020/08/20 09:44:07;;;;;;;9.38;2.47;;;;;;;23.14;72.31;99870.17;;;;-48
2020/08/20 09:47:07;;;;;;;7.61;2.35;;;;;;;23.16;72.49;99879.59;;;;-54
2020/08/20 09:50:06;;;;;;;10.33;2.38;;;;;;;23.16;72.45;99880.34;;;;-47
2020/08/20 09:53:07;;;;;;;5.31;2.17;;;;;;;23.17;72.40;99879.09;;;;-48
2020/08/20 09:56:07;;;;;;;8.49;2.25;;;;;;;23.19;72.40;99878.25;;;;-48
2020/08/20 09:59:07;;;;;;;9.53;2.35;;;;;;;23.20;72.35;99871.53;;;;-46
2020/08/20 10:02:07;;;;;;;6.85;2.21;;;;;;;23.22;72.34;99879.34;;;;-48
2020/08/20 10:05:07;;;;;;;5.40;2.23;;;;;;;23.23;72.31;99878.50;;;;-50
2020/08/20 10:08:07;;;;;;;6.23;2.29;;;;;;;23.23;72.26;99878.41;;;;-50
2020/08/20 10:11:08;;;;;;;7.52;2.10;;;;;;;23.26;72.24;99880.06;;;;-49
2020/08/20 10:14:07;;;;;;;6.78;2.47;;;;;;;23.26;72.25;99876.81;;;;-55
2020/08/20 10:17:07;;;;;;;7.77;2.25;;;;;;;23.27;72.18;99876.28;;;;-55
2020/08/20 10:20:07;;;;;;;7.07;2.20;;;;;;;23.28;72.17;99875.12;;;;-57
2020/08/20 10:23:07;;;;;;;5.20;2.20;;;;;;;23.28;72.06;99875.28;;;;-55
2020/08/20 10:26:07;;;;;;;6.85;2.48;;;;;;;23.29;72.13;99871.76;;;;-51
2020/08/20 10:29:07;;;;;;;6.43;2.21;;;;;;;23.30;72.11;99867.98;;;;-48
2020/08/20 10:32:07;;;;;;;7.43;2.21;;;;;;;23.27;72.00;99863.95;;;;-59
2020/08/20 10:35:07;;;;;;;4.48;2.11;;;;;;;23.26;72.04;99868.05;;;;-58
2020/08/20 10:38:07;;;;;;;8.76;2.33;;;;;;;23.26;71.99;99860.84;;;;-58
2020/08/20 10:41:08;;;;;;;6.68;2.11;;;;;;;23.23;72.05;99857.23;;;;-59
2020/08/20 10:44:07;;;;;;;7.03;2.10;;;;;;;23.22;72.10;99852.91;;;;-58
2020/08/20 10:47:07;;;;;;;5.07;1.91;;;;;;;23.21;72.11;99854.67;;;;-58
2020/08/20 10:50:07;;;;;;;3.73;2.09;;;;;;;23.20;72.10;99848.48;;;;-58
2020/08/20 10:53:07;;;;;;;6.99;2.11;;;;;;;23.19;72.09;99846.86;;;;-58
2020/08/20 10:56:07;;;;;;;4.59;2.20;;;;;;;23.18;72.07;99846.48;;;;-58
2020/08/20 10:59:07;;;;;;;4.79;1.79;;;;;;;23.17;72.06;99841.34;;;;-59
2020/08/20 11:02:07;;;;;;;4.13;2.03;;;;;;;23.16;72.04;99838.25;;;;-58
2020/08/20 11:05:07;;;;;;;4.54;2.19;;;;;;;23.16;72.03;99841.13;;;;-56
2020/08/20 11:08:07;;;;;;;5.18;2.09;;;;;;;23.15;71.97;99843.56;;;;-57
2020/08/20 11:11:07;;;;;;;3.95;1.95;;;;;;;23.14;71.94;99840.33;;;;-53
2020/08/20 11:14:07;;;;;;;4.13;2.01;;;;;;;23.14;71.94;99845.06;;;;-55
2020/08/20 11:17:07;;;;;;;2.76;1.87;;;;;;;23.14;71.91;99848.09;;;;-58
2020/08/20 11:20:07;;;;;;;4.30;2.03;;;;;;;23.12;71.89;99839.63;;;;-54
2020/08/20 11:23:07;;;;;;;3.65;1.89;;;;;;;23.11;71.90;99836.05;;;;-58
2020/08/20 11:26:07;;;;;;;4.59;2.09;;;;;;;23.11;71.86;99832.20;;;;-58
2020/08/20 11:29:07;;;;;;;2.83;1.88;;;;;;;23.10;71.83;99834.94;;;;-58
2020/08/20 11:32:07;;;;;;;2.96;1.90;;;;;;;23.10;71.85;99835.50;;;;-58
2020/08/20 11:35:07;;;;;;;3.25;1.91;;;;;;;23.09;71.83;99833.86;;;;-58
2020/08/20 11:38:07;;;;;;;5.44;2.01;;;;;;;23.09;71.83;99833.06;;;;-54
2020/08/20 11:41:07;;;;;;;4.97;2.01;;;;;;;23.08;71.81;99830.39;;;;-53
2020/08/20 11:44:07;;;;;;;5.87;2.00;;;;;;;23.07;71.79;99834.47;;;;-57
2020/08/20 11:47:07;;;;;;;4.23;2.03;;;;;;;23.07;71.79;99835.14;;;;-57
2020/08/20 11:50:07;;;;;;;5.21;2.01;;;;;;;23.07;71.74;99831.14;;;;-57
2020/08/20 11:53:07;;;;;;;2.67;1.79;;;;;;;23.07;71.75;99831.47;;;;-56
2020/08/20 11:56:07;;;;;;;2.53;1.81;;;;;;;23.06;71.71;99827.23;;;;-59
2020/08/20 11:59:07;;;;;;;3.95;2.03;;;;;;;23.05;71.68;99831.23;;;;-59
2020/08/20 12:02:07;;;;;;;6.35;1.89;;;;;;;23.05;71.89;99829.44;;;;-59
2020/08/20 12:05:07;;;;;;;10.03;2.32;;;;;;;23.04;71.97;99828.42;;;;-51
2020/08/20 12:08:07;;;;;;;5.96;2.13;;;;;;;23.07;72.03;99828.77;;;;-54
2020/08/20 12:11:07;;;;;;;3.99;2.15;;;;;;;23.08;71.95;99831.38;;;;-53
2020/08/20 12:14:07;;;;;;;4.29;1.97;;;;;;;23.11;71.99;99826.00;;;;-59
2020/08/20 12:17:07;;;;;;;4.03;1.85;;;;;;;23.12;71.97;99828.19;;;;-51
2020/08/20 12:20:07;;;;;;;6.57;2.08;;;;;;;23.14;72.04;99828.48;;;;-50
2020/08/20 12:23:07;;;;;;;3.99;2.05;;;;;;;23.15;72.17;99827.16;;;;-51
2020/08/20 12:26:07;;;;;;;7.59;2.05;;;;;;;23.17;72.54;99827.36;;;;-53
2020/08/20 12:29:07;;;;;;;6.73;2.17;;;;;;;23.17;72.13;99825.87;;;;-59
2020/08/20 12:32:07;;;;;;;6.49;2.00;;;;;;;23.18;72.29;99817.61;;;;-56
2020/08/20 12:35:07;;;;;;;4.21;1.93;;;;;;;23.20;72.31;99810.70;;;;-54
2020/08/20 12:38:07;;;;;;;6.78;1.81;;;;;;;23.21;72.42;99812.81;;;;-53
2020/08/20 12:41:07;;;;;;;4.92;2.07;;;;;;;23.20;72.18;99806.36;;;;-57
2020/08/20 12:44:07;;;;;;;4.24;1.92;;;;;;;23.20;72.22;99802.37;;;;-59
2020/08/20 12:47:07;;;;;;;2.80;1.94;;;;;;;23.21;72.24;99801.05;;;;-53
2020/08/20 12:50:07;;;;;;;4.86;1.92;;;;;;;23.22;72.39;99799.70;;;;-51
2020/08/20 12:53:07;;;;;;;6.38;2.00;;;;;;;23.23;72.32;99804.27;;;;-51
2020/08/20 12:56:07;;;;;;;9.49;1.98;;;;;;;23.24;72.32;99795.65;;;;-53
2020/08/20 12:59:07;;;;;;;6.61;1.88;;;;;;;23.26;72.34;99795.87;;;;-53
2020/08/20 13:02:07;;;;;;;4.71;1.94;;;;;;;23.27;72.29;99793.08;;;;-55
2020/08/20 13:05:07;;;;;;;4.55;1.80;;;;;;;23.28;72.23;99790.17;;;;-55
2020/08/20 13:08:07;;;;;;;3.51;1.76;;;;;;;23.29;72.32;99787.73;;;;-52
2020/08/20 13:11:07;;;;;;;10.59;2.24;;;;;;;23.28;72.34;99788.31;;;;-58
2020/08/20 13:14:07;;;;;;;5.76;1.89;;;;;;;23.29;72.32;99780.42;;;;-60
2020/08/20 13:17:07;;;;;;;5.60;2.15;;;;;;;23.30;72.26;99781.89;;;;-54
2020/08/20 13:20:07;;;;;;;3.41;1.89;;;;;;;23.32;72.29;99780.70;;;;-61
2020/08/20 13:23:07;;;;;;;3.45;1.79;;;;;;;23.33;72.27;99774.80;;;;-56
2020/08/20 13:26:07;;;;;;;3.33;1.80;;;;;;;23.35;72.22;99776.32;;;;-59
2020/08/20 13:29:07;;;;;;;5.17;1.83;;;;;;;23.34;72.32;99775.66;;;;-53
2020/08/20 13:32:07;;;;;;;3.99;1.83;;;;;;;23.35;72.38;99773.30;;;;-52
2020/08/20 13:35:07;;;;;;;4.57;2.07;;;;;;;23.37;72.24;99773.42;;;;-50
2020/08/20 13:38:07;;;;;;;8.08;1.90;;;;;;;23.37;72.47;99768.73;;;;-47
2020/08/20 13:41:07;;;;;;;4.39;1.76;;;;;;;23.36;72.39;99771.22;;;;-52
2020/08/20 13:44:07;;;;;;;6.29;1.88;;;;;;;23.37;72.38;99765.58;;;;-56
2020/08/20 13:47:07;;;;;;;9.35;1.82;;;;;;;23.37;72.38;99764.09;;;;-57
2020/08/20 13:50:07;;;;;;;5.51;1.89;;;;;;;23.38;72.32;99757.25;;;;-54
2020/08/20 13:53:07;;;;;;;5.71;1.84;;;;;;;23.39;72.22;99749.49;;;;-48
2020/08/20 13:56:07;;;;;;;4.53;1.82;;;;;;;23.39;72.21;99744.66;;;;-58
2020/08/20 13:59:07;;;;;;;4.75;2.10;;;;;;;23.41;72.15;99741.20;;;;-48
2020/08/20 14:02:07;;;;;;;4.33;2.03;;;;;;;23.42;72.25;99740.52;;;;-54
2020/08/20 14:05:07;;;;;;;7.81;2.11;;;;;;;23.43;72.23;99740.39;;;;-54
2020/08/20 14:08:07;;;;;;;4.27;1.93;;;;;;;23.43;72.18;99736.39;;;;-49
2020/08/20 14:11:07;;;;;;;3.04;1.79;;;;;;;23.43;72.19;99739.27;;;;-56
2020/08/20 14:14:07;;;;;;;5.29;2.12;;;;;;;23.44;72.24;99739.55;;;;-48
2020/08/20 14:17:07;;;;;;;5.25;2.01;;;;;;;23.46;72.14;99731.93;;;;-45
2020/08/20 14:20:07;;;;;;;4.15;2.05;;;;;;;23.47;72.08;99730.42;;;;-55
2020/08/20 14:23:07;;;;;;;7.47;2.09;;;;;;;23.47;72.09;99728.37;;;;-51
2020/08/20 14:26:07;;;;;;;3.98;1.87;;;;;;;23.48;72.06;99722.73;;;;-52
2020/08/20 14:29:07;;;;;;;4.87;1.70;;;;;;;23.49;72.17;99724.66;;;;-53
2020/08/20 14:32:07;;;;;;;5.47;1.92;;;;;;;23.49;72.21;99717.30;;;;-51
2020/08/20 14:35:07;;;;;;;5.65;1.96;;;;;;;23.49;72.08;99714.20;;;;-60
2020/08/20 14:38:07;;;;;;;5.24;1.79;;;;;;;23.49;72.22;99707.80;;;;-59
2020/08/20 14:41:07;;;;;;;6.25;1.74;;;;;;;23.48;72.07;99708.16;;;;-59
2020/08/20 14:44:07;;;;;;;3.65;1.93;;;;;;;23.48;71.98;99705.95;;;;-58
2020/08/20 14:47:07;;;;;;;3.90;1.72;;;;;;;23.48;71.99;99707.03;;;;-59
2020/08/20 14:50:07;;;;;;;6.09;1.91;;;;;;;23.48;72.03;99703.41;;;;-59
2020/08/20 14:53:06;;;;;;;5.27;1.80;;;;;;;23.47;71.88;99695.66;;;;-59
2020/08/20 14:56:07;;;;;;;4.50;1.85;;;;;;;23.47;71.95;99694.11;;;;-58
2020/08/20 14:59:07;;;;;;;4.58;1.87;;;;;;;23.46;71.85;99697.33;;;;-58
2020/08/20 15:02:07;;;;;;;4.05;1.75;;;;;;;23.45;71.81;99692.37;;;;-59
2020/08/20 15:05:07;;;;;;;5.61;1.86;;;;;;;23.44;71.83;99692.55;;;;-58
2020/08/20 15:08:07;;;;;;;4.79;1.81;;;;;;;23.45;71.82;99691.05;;;;-58
2020/08/20 15:11:07;;;;;;;4.79;1.81;;;;;;;23.43;71.69;99687.34;;;;-57
2020/08/20 15:14:07;;;;;;;3.91;1.80;;;;;;;23.43;71.75;99686.19;;;;-59
2020/08/20 15:17:07;;;;;;;2.78;1.70;;;;;;;23.43;71.77;99682.75;;;;-58
2020/08/20 15:20:07;;;;;;;3.24;1.86;;;;;;;23.43;71.70;99682.10;;;;-58
2020/08/20 15:23:07;;;;;;;3.08;1.79;;;;;;;23.43;71.68;99680.47;;;;-58
2020/08/20 15:26:07;;;;;;;2.51;1.61;;;;;;;23.42;71.68;99681.23;;;;-54
2020/08/20 15:29:07;;;;;;;4.04;1.65;;;;;;;23.42;71.63;99678.59;;;;-59
2020/08/20 15:32:07;;;;;;;8.20;1.91;;;;;;;23.43;71.88;99673.83;;;;-48
2020/08/20 15:35:06;;;;;;;6.99;1.70;;;;;;;23.45;71.97;99673.22;;;;-53
2020/08/20 15:38:07;;;;;;;6.51;1.92;;;;;;;23.44;72.00;99674.79;;;;-54
2020/08/20 15:41:07;;;;;;;6.93;2.21;;;;;;;23.45;71.95;99677.16;;;;-60
2020/08/20 15:44:07;;;;;;;6.55;1.98;;;;;;;23.46;71.85;99679.41;;;;-60
2020/08/20 15:47:07;;;;;;;10.93;2.07;;;;;;;23.48;71.92;99678.64;;;;-59
2020/08/20 15:50:07;;;;;;;13.61;2.53;;;;;;;23.49;72.49;99679.59;;;;-52
2020/08/20 15:53:07;;;;;;;15.61;2.45;;;;;;;23.50;72.50;99678.83;;;;-50
2020/08/20 15:56:07;;;;;;;12.33;2.20;;;;;;;23.52;72.51;99680.27;;;;-63
2020/08/20 15:59:07;;;;;;;11.91;2.05;;;;;;;23.52;72.38;99683.78;;;;-55
2020/08/20 16:02:07;;;;;;;7.77;2.15;;;;;;;23.53;72.43;99683.74;;;;-50
2020/08/20 16:05:07;;;;;;;11.29;2.25;;;;;;;23.54;72.46;99684.46;;;;-56
2020/08/20 16:08:07;;;;;;;9.59;2.03;;;;;;;23.54;72.49;99683.64;;;;-55
2020/08/20 16:11:07;;;;;;;7.93;2.17;;;;;;;23.55;72.25;99678.88;;;;-58
2020/08/20 16:14:07;;;;;;;9.69;2.13;;;;;;;23.55;72.19;99680.75;;;;-55
2020/08/20 16:17:07;;;;;;;14.94;2.24;;;;;;;23.55;72.49;99680.26;;;;-49
2020/08/20 16:20:07;;;;;;;5.79;1.99;;;;;;;23.56;72.35;99681.72;;;;-53
2020/08/20 16:23:07;;;;;;;10.43;2.02;;;;;;;23.58;72.33;99679.89;;;;-51
2020/08/20 16:26:07;;;;;;;6.92;2.11;;;;;;;23.59;72.23;99680.59;;;;-54
2020/08/20 16:29:07;;;;;;;7.68;1.93;;;;;;;23.60;72.31;99681.53;;;;-56
2020/08/20 16:32:07;;;;;;;8.34;1.99;;;;;;;23.61;72.28;99678.48;;;;-55
2020/08/20 16:35:07;;;;;;;9.43;1.92;;;;;;;23.62;72.15;99677.98;;;;-53
2020/08/20 16:38:06;;;;;;;8.11;1.91;;;;;;;23.62;72.20;99678.26;;;;-52
2020/08/20 16:41:07;;;;;;;4.39;1.80;;;;;;;23.63;72.21;99672.17;;;;-57
2020/08/20 16:44:07;;;;;;;6.85;1.96;;;;;;;23.63;72.28;99671.91;;;;-52
2020/08/20 16:47:07;;;;;;;8.70;1.95;;;;;;;23.65;72.20;99673.31;;;;-53
2020/08/20 16:50:07;;;;;;;4.44;1.88;;;;;;;23.66;72.21;99672.24;;;;-54
2020/08/20 16:53:07;;;;;;;5.38;1.91;;;;;;;23.66;72.36;99676.27;;;;-50
2020/08/20 16:56:07;;;;;;;4.51;1.66;;;;;;;23.67;72.37;99674.99;;;;-50